createdAt,value
2023-05-09T00:00:58.462Z,12.4286
2023-05-09T00:01:58.735Z,12.3571
2023-05-09T00:02:58.980Z,12.3571
2023-05-09T00:03:59.317Z,12.3571
2023-05-09T00:04:59.490Z,12.3571
2023-05-09T00:05:59.712Z,12.3571
2023-05-09T00:06:59.973Z,12.2857
2023-05-09T00:08:00.207Z,12.2857
2023-05-09T00:09:00.510Z,12.2857
2023-05-09T00:10:00.737Z,12.2857
2023-05-09T00:11:01.007Z,12.2143
2023-05-09T00:12:01.427Z,12.2143
2023-05-09T00:13:01.688Z,12.2143
2023-05-09T00:14:02.017Z,12.2143
2023-05-09T00:15:02.226Z,12.2143
2023-05-09T00:16:02.592Z,12.1429
2023-05-09T00:17:02.907Z,12.1429
2023-05-09T00:18:03.212Z,12.1429
2023-05-09T00:19:03.496Z,12.1429
2023-05-09T00:20:03.863Z,12.0714
2023-05-09T00:21:04.139Z,12.0714
2023-05-09T00:22:04.529Z,12.0714
2023-05-09T00:23:04.899Z,12.0714
2023-05-09T00:24:05.164Z,12
2023-05-09T00:25:05.633Z,12
2023-05-09T00:26:05.881Z,12
2023-05-09T00:27:06.196Z,12
2023-05-09T00:28:06.597Z,12
2023-05-09T00:29:06.818Z,11.9286
2023-05-09T00:30:07.105Z,11.9286
2023-05-09T00:31:07.393Z,11.9286
2023-05-09T00:32:07.778Z,11.9286
2023-05-09T00:33:08.173Z,11.9286
2023-05-09T00:34:08.475Z,11.9286
2023-05-09T00:35:08.861Z,11.8571
2023-05-09T00:36:09.238Z,11.8571
2023-05-09T00:37:09.648Z,11.8571
2023-05-09T00:38:09.954Z,11.8571
2023-05-09T00:39:10.320Z,11.8571
2023-05-09T00:40:10.695Z,11.7857
2023-05-09T00:41:11.024Z,11.7857
2023-05-09T00:42:11.455Z,11.7857
2023-05-09T00:43:11.807Z,11.7857
2023-05-09T00:44:12.164Z,11.7857
2023-05-09T00:45:12.678Z,11.7857
2023-05-09T00:46:13.060Z,11.7143
2023-05-09T00:47:13.448Z,11.7143
2023-05-09T00:48:13.981Z,11.7143
2023-05-09T00:49:14.346Z,11.7143
2023-05-09T00:50:14.802Z,11.7143
2023-05-09T00:51:15.180Z,11.7143
2023-05-09T00:52:15.646Z,11.7143
2023-05-09T00:53:16.117Z,11.6429
2023-05-09T00:54:16.599Z,11.6429
2023-05-09T00:55:17.167Z,11.6429
2023-05-09T00:56:17.535Z,11.6429
2023-05-09T00:57:18.005Z,11.6429
2023-05-09T00:58:18.368Z,11.5714
2023-05-09T00:59:18.783Z,11.5714
2023-05-09T01:00:19.247Z,11.5714
2023-05-09T01:01:19.814Z,11.5714
2023-05-09T01:02:20.218Z,11.5714
2023-05-09T01:03:20.623Z,11.5714
2023-05-09T01:04:20.853Z,11.5714
2023-05-09T01:05:21.184Z,11.5
2023-05-09T01:06:21.761Z,11.5
2023-05-09T01:07:22.180Z,11.5
2023-05-09T01:08:22.706Z,11.5
2023-05-09T01:09:23.233Z,11.5
2023-05-09T01:10:23.808Z,11.5
2023-05-09T01:11:24.299Z,11.5
2023-05-09T01:12:24.757Z,11.5
2023-05-09T01:13:25.335Z,11.5
2023-05-09T01:14:25.667Z,11.4286
2023-05-09T01:15:26.256Z,11.4286
2023-05-09T01:16:26.887Z,11.4286
2023-05-09T01:17:27.156Z,11.4286
2023-05-09T01:18:27.593Z,11.3571
2023-05-09T01:19:28.118Z,11.3571
2023-05-09T01:20:28.646Z,11.3571
2023-05-09T01:21:29.104Z,11.3571
2023-05-09T01:22:29.605Z,11.3571
2023-05-09T01:23:29.953Z,11.3571
2023-05-09T01:24:30.566Z,11.2857
2023-05-09T01:25:30.987Z,11.2857
2023-05-09T01:26:31.553Z,11.2857
2023-05-09T01:27:32.066Z,11.2857
2023-05-09T01:28:32.552Z,11.2857
2023-05-09T01:29:33.060Z,11.2857
2023-05-09T01:30:33.796Z,11.2143
2023-05-09T01:31:34.481Z,11.2143
2023-05-09T01:32:35.069Z,11.2143
2023-05-09T01:33:35.612Z,11.2143
2023-05-09T01:34:36.186Z,11.2143
2023-05-09T01:35:36.738Z,11.2143
2023-05-09T01:36:37.230Z,11.2143
2023-05-09T01:37:38.045Z,11.1429
2023-05-09T01:38:38.490Z,11.1429
2023-05-09T01:39:39.130Z,11.1429
2023-05-09T01:40:39.510Z,11.1429
2023-05-09T01:41:39.997Z,11.1429
2023-05-09T01:42:40.517Z,11.1429
2023-05-09T01:43:41.200Z,11.1429
2023-05-09T01:44:41.522Z,11.1429
2023-05-09T01:45:42.217Z,11.0714
2023-05-09T01:46:43.057Z,11.0714
2023-05-09T01:47:43.504Z,11.0714
2023-05-09T01:48:43.933Z,11.0714
2023-05-09T01:49:44.582Z,11.0714
2023-05-09T01:50:45.269Z,11.0714
2023-05-09T01:51:46.015Z,11
2023-05-09T01:52:46.500Z,11
2023-05-09T01:53:47.034Z,11
2023-05-09T01:54:47.619Z,11
2023-05-09T01:55:48.050Z,11
2023-05-09T01:56:48.493Z,11
2023-05-09T01:57:49.026Z,11
2023-05-09T01:58:49.737Z,11
2023-05-09T01:59:50.221Z,11
2023-05-09T02:00:51.020Z,11
2023-05-09T02:01:51.598Z,10.9286
2023-05-09T02:02:52.333Z,10.9286
2023-05-09T02:03:53.198Z,10.9286
2023-05-09T02:04:53.873Z,10.9286
2023-05-09T02:05:54.721Z,10.9286
2023-05-09T02:06:55.453Z,10.9286
2023-05-09T02:07:56.159Z,10.9286
2023-05-09T02:08:56.908Z,10.9286
2023-05-09T02:09:57.885Z,10.8571
2023-05-09T02:10:58.755Z,10.8571
2023-05-09T02:11:59.638Z,10.8571
2023-05-09T02:13:00.324Z,10.8571
2023-05-09T02:14:01.120Z,10.8571
2023-05-09T02:15:02.003Z,10.8571
2023-05-09T02:16:02.780Z,10.8571
2023-05-09T02:17:03.624Z,10.8571
2023-05-09T02:18:04.520Z,10.8571
2023-05-09T02:19:04.594Z,10.8571
2023-05-09T02:20:04.599Z,10.8571
2023-05-09T02:21:04.751Z,10.8571
2023-05-09T02:22:05.717Z,10.7857
2023-05-09T02:23:06.553Z,10.7857
2023-05-09T02:24:07.484Z,10.7857
2023-05-09T02:25:08.338Z,10.7857
2023-05-09T02:26:08.366Z,10.7857
2023-05-09T02:27:08.590Z,10.7857
2023-05-09T02:28:09.532Z,10.7857
2023-05-09T02:29:09.658Z,10.7857
2023-05-09T02:30:10.561Z,10.7857
2023-05-09T02:31:11.613Z,10.7143
2023-05-09T02:32:12.349Z,10.7143
2023-05-09T02:33:12.355Z,10.7143
2023-05-09T02:34:13.221Z,10.7143
2023-05-09T02:35:14.434Z,10.7143
2023-05-09T02:36:15.080Z,10.7143
2023-05-09T02:37:15.186Z,10.7143
2023-05-09T02:38:15.798Z,10.7143
2023-05-09T02:39:16.457Z,10.7143
2023-05-09T02:40:17.126Z,10.7143
2023-05-09T02:41:17.823Z,10.7143
2023-05-09T02:42:18.356Z,10.7143
2023-05-09T02:43:18.983Z,10.7143
2023-05-09T02:44:19.929Z,10.7143
2023-05-09T02:45:20.546Z,10.6429
2023-05-09T02:46:21.338Z,10.6429
2023-05-09T02:47:22.056Z,10.6429
2023-05-09T02:48:22.659Z,10.6429
2023-05-09T02:49:32.105Z,10.6429
2023-05-09T02:50:24.003Z,10.6429
2023-05-09T02:51:24.915Z,10.6429
2023-05-09T02:52:25.601Z,10.6429
2023-05-09T02:53:26.232Z,10.6429
2023-05-09T02:54:26.934Z,10.6429
2023-05-09T02:55:27.565Z,10.6429
2023-05-09T02:56:28.365Z,10.6429
2023-05-09T02:57:29.040Z,10.6429
2023-05-09T02:58:29.717Z,10.6429
2023-05-09T02:59:30.604Z,10.5714
2023-05-09T03:00:31.337Z,10.5714
2023-05-09T03:01:32.113Z,10.5714
2023-05-09T03:02:33.008Z,10.5714
2023-05-09T03:03:33.880Z,10.5714
2023-05-09T03:04:34.529Z,10.5714
2023-05-09T03:05:35.270Z,10.5714
2023-05-09T03:06:35.357Z,10.5714
2023-05-09T03:07:35.457Z,10.5714
2023-05-09T03:08:35.581Z,10.5
2023-05-09T03:09:36.322Z,10.5
2023-05-09T03:10:37.146Z,10.5
2023-05-09T03:11:38.037Z,10.5
2023-05-09T03:12:38.973Z,10.5
2023-05-09T03:13:39.803Z,10.5
2023-05-09T03:14:40.670Z,10.5
2023-05-09T03:15:40.810Z,10.5
2023-05-09T03:16:41.644Z,10.5
2023-05-09T03:17:42.532Z,10.5
2023-05-09T03:18:43.500Z,10.4286
2023-05-09T03:19:44.136Z,10.4286
2023-05-09T03:20:45.110Z,10.4286
2023-05-09T03:21:46.007Z,10.4286
2023-05-09T03:22:45.980Z,10.4286
2023-05-09T03:23:46.989Z,10.4286
2023-05-09T03:24:58.257Z,10.4286
2023-05-09T03:26:48.587Z,10.4286
2023-05-09T03:27:49.474Z,10.3571
2023-05-09T03:28:49.372Z,10.3571
2023-05-09T03:29:50.109Z,10.3571
2023-05-09T03:30:50.277Z,10.3571
2023-05-09T03:31:51.096Z,10.3571
2023-05-09T03:32:51.927Z,10.3571
2023-05-09T03:33:51.929Z,10.3571
2023-05-09T03:34:52.820Z,10.3571
2023-05-09T03:35:52.974Z,10.3571
2023-05-09T03:36:53.092Z,10.3571
2023-05-09T03:37:54.011Z,10.3571
2023-05-09T03:38:55.017Z,10.3571
2023-05-09T03:39:55.864Z,10.3571
2023-05-09T03:40:55.933Z,10.2857
2023-05-09T03:41:55.938Z,10.3571
2023-05-09T03:42:56.190Z,10.2857
2023-05-09T03:43:56.499Z,10.2857
2023-05-09T03:44:56.562Z,10.2857
2023-05-09T03:45:57.613Z,10.2857
2023-05-09T03:46:58.618Z,10.2857
2023-05-09T03:47:58.642Z,10.2857
2023-05-09T03:48:58.905Z,10.2857
2023-05-09T03:49:58.920Z,10.2857
2023-05-09T03:50:59.149Z,10.2857
2023-05-09T03:51:59.171Z,10.3571
2023-05-09T03:52:59.694Z,10.3571
2023-05-09T03:54:00.234Z,10.3571
2023-05-09T03:55:00.540Z,10.3571
2023-05-09T03:56:00.674Z,10.3571
2023-05-09T03:57:00.781Z,10.3571
2023-05-09T03:58:01.053Z,10.3571
2023-05-09T03:59:01.372Z,10.3571
2023-05-09T04:00:01.685Z,10.3571
2023-05-09T04:01:02.084Z,10.3571
2023-05-09T04:02:02.568Z,10.3571
2023-05-09T04:03:03.230Z,10.3571
2023-05-09T04:04:03.386Z,10.3571
2023-05-09T04:05:03.753Z,10.3571
2023-05-09T04:06:04.009Z,10.3571
2023-05-09T04:07:04.733Z,10.3571
2023-05-09T04:08:05.330Z,10.3571
2023-05-09T04:09:05.777Z,10.3571
2023-05-09T04:10:06.226Z,10.4286
2023-05-09T04:11:07.135Z,10.4286
2023-05-09T04:12:07.457Z,10.4286
2023-05-09T04:13:08.234Z,10.4286
2023-05-09T04:14:08.907Z,10.4286
2023-05-09T04:15:09.678Z,10.4286
2023-05-09T04:16:10.352Z,10.4286
2023-05-09T04:17:11.414Z,10.4286
2023-05-09T04:18:12.046Z,10.4286
2023-05-09T04:19:12.325Z,10.4286
2023-05-09T04:20:13.206Z,10.4286
2023-05-09T04:21:14.021Z,10.5
2023-05-09T04:22:14.423Z,10.5
2023-05-09T04:23:15.153Z,10.5
2023-05-09T04:24:16.069Z,10.5
2023-05-09T04:25:17.189Z,10.5
2023-05-09T04:26:17.433Z,10.5
2023-05-09T04:27:18.204Z,10.5
2023-05-09T04:28:18.787Z,10.5714
2023-05-09T04:29:19.330Z,10.5714
2023-05-09T04:30:20.161Z,10.5714
2023-05-09T04:31:20.896Z,10.5714
2023-05-09T04:32:20.867Z,10.5714
2023-05-09T04:33:21.634Z,10.6429
2023-05-09T04:34:22.718Z,10.6429
2023-05-09T04:35:23.429Z,10.6429
2023-05-09T04:36:24.320Z,10.6429
2023-05-09T04:37:24.663Z,10.6429
2023-05-09T04:38:24.598Z,10.6429
2023-05-09T04:39:24.693Z,10.7143
2023-05-09T04:40:26.750Z,10.7143
2023-05-09T04:41:25.248Z,10.7143
2023-05-09T04:42:25.558Z,10.7143
2023-05-09T04:43:26.287Z,10.7857
2023-05-09T04:44:26.504Z,10.7857
2023-05-09T04:45:26.803Z,10.7857
2023-05-09T04:46:27.640Z,10.7857
2023-05-09T04:47:27.976Z,10.8571
2023-05-09T04:48:28.748Z,10.8571
2023-05-09T04:49:29.395Z,10.8571
2023-05-09T04:50:30.038Z,10.8571
2023-05-09T04:51:31.002Z,10.9286
2023-05-09T04:52:31.760Z,10.9286
2023-05-09T04:53:31.880Z,10.9286
2023-05-09T04:54:32.871Z,10.9286
2023-05-09T04:55:33.360Z,11
2023-05-09T04:56:34.435Z,11
2023-05-09T04:57:35.130Z,11
2023-05-09T04:58:35.734Z,11
2023-05-09T04:59:36.448Z,11.0714
2023-05-09T05:00:36.809Z,11.0714
2023-05-09T05:01:37.017Z,11.0714
2023-05-09T05:02:37.254Z,11.1429
2023-05-09T05:03:37.689Z,11.1429
2023-05-09T05:04:38.665Z,11.1429
2023-05-09T05:05:38.856Z,11.1429
2023-05-09T05:06:39.287Z,11.2143
2023-05-09T05:07:40.232Z,11.2143
2023-05-09T05:08:40.274Z,11.2143
2023-05-09T05:09:40.400Z,11.2143
2023-05-09T05:10:40.787Z,11.2857
2023-05-09T05:11:53.185Z,11.2857
2023-05-09T05:12:42.576Z,11.2857
2023-05-09T05:13:42.805Z,11.3571
2023-05-09T05:14:43.677Z,11.3571
2023-05-09T05:15:44.598Z,11.3571
2023-05-09T05:16:45.164Z,11.3571
2023-05-09T05:17:46.131Z,11.3571
2023-05-09T05:18:46.662Z,11.4286
2023-05-09T05:19:47.622Z,11.4286
2023-05-09T05:20:48.316Z,11.5
2023-05-09T05:21:49.213Z,11.5
2023-05-09T05:22:49.589Z,11.5
2023-05-09T05:23:50.463Z,11.5
2023-05-09T05:24:51.123Z,11.5714
2023-05-09T05:25:51.740Z,11.5714
2023-05-09T05:26:52.459Z,11.5714
2023-05-09T05:27:52.452Z,11.5714
2023-05-09T05:28:52.543Z,11.5714
2023-05-09T05:29:52.818Z,11.6429
2023-05-09T05:30:53.022Z,11.7143
2023-05-09T05:31:53.273Z,11.7143
2023-05-09T05:32:53.144Z,11.7143
2023-05-09T05:33:53.224Z,11.7857
2023-05-09T05:34:54.100Z,11.7857
2023-05-09T05:35:54.749Z,11.8571
2023-05-09T05:36:55.377Z,11.9286
2023-05-09T05:37:55.556Z,11.9286
2023-05-09T05:38:56.573Z,12
2023-05-09T05:39:57.372Z,12
2023-05-09T05:40:58.070Z,12.0714
2023-05-09T05:41:59.193Z,12.0714
2023-05-09T05:42:59.568Z,12.0714
2023-05-09T05:43:59.630Z,12.1429
2023-05-09T05:44:59.633Z,12.1429
2023-05-09T05:46:00.439Z,12.2143
2023-05-09T05:47:00.586Z,12.2143
2023-05-09T05:48:01.028Z,12.2857
2023-05-09T05:49:01.979Z,12.2857
2023-05-09T05:50:02.795Z,12.3571
2023-05-09T05:51:03.522Z,12.4286
2023-05-09T05:52:03.654Z,12.5
2023-05-09T05:53:04.004Z,12.5714
2023-05-09T05:54:04.175Z,12.6429
2023-05-09T05:55:05.110Z,12.7857
2023-05-09T05:56:05.462Z,12.9286
2023-05-09T05:57:05.795Z,13.0714
2023-05-09T05:58:06.098Z,13.2143
2023-05-09T05:59:06.527Z,13.3571
2023-05-09T06:00:07.341Z,13.5
2023-05-09T06:01:07.462Z,13.6429
2023-05-09T06:02:07.858Z,13.7857
2023-05-09T06:03:08.257Z,13.9286
2023-05-09T06:04:08.494Z,14
2023-05-09T06:05:08.857Z,14.0714
2023-05-09T06:06:09.331Z,14.0714
2023-05-09T06:07:09.804Z,14.2143
2023-05-09T06:08:10.254Z,14.3571
2023-05-09T06:09:10.835Z,14.6429
2023-05-09T06:10:11.311Z,15
2023-05-09T06:11:11.474Z,15.4286
2023-05-09T06:12:12.217Z,15.8571
2023-05-09T06:13:12.914Z,16.2857
2023-05-09T06:14:13.637Z,16.8571
2023-05-09T06:15:14.809Z,17.3571
2023-05-09T06:16:19.900Z,17.8571
2023-05-09T06:17:16.040Z,18.3571
2023-05-09T06:18:16.677Z,18.7857
2023-05-09T06:19:17.293Z,19.1429
2023-05-09T06:20:17.680Z,19.3571
2023-05-09T06:21:17.900Z,19.5714
2023-05-09T06:22:17.984Z,19.7857
2023-05-09T06:23:18.724Z,20.0714
2023-05-09T06:24:31.810Z,20.2857
2023-05-09T06:25:19.857Z,20.5
2023-05-09T06:26:20.540Z,20.7143
2023-05-09T06:27:21.193Z,20.9286
2023-05-09T06:28:21.867Z,21.1429
2023-05-09T06:29:22.699Z,21.4286
2023-05-09T06:30:26.421Z,21.7143
2023-05-09T06:31:25.714Z,22
2023-05-09T06:32:24.614Z,22.1429
2023-05-09T06:33:26.024Z,22.2143
2023-05-09T06:34:26.636Z,22.3571
2023-05-09T06:35:27.506Z,22.5714
2023-05-09T06:36:28.481Z,22.7143
2023-05-09T06:37:28.520Z,23
2023-05-09T06:38:28.634Z,23.2143
2023-05-09T06:39:29.536Z,23.3571
2023-05-09T06:40:29.426Z,23.5
2023-05-09T06:41:29.493Z,23.5
2023-05-09T06:42:30.157Z,23.5
2023-05-09T06:43:31.070Z,23.5
2023-05-09T06:44:31.975Z,23.5714
2023-05-09T06:45:32.500Z,23.5
2023-05-09T06:46:33.479Z,23.5
2023-05-09T06:47:33.990Z,23.5
2023-05-09T06:48:34.254Z,23.5714
2023-05-09T06:49:35.290Z,23.6429
2023-05-09T06:50:35.994Z,23.7857
2023-05-09T06:51:36.259Z,23.9286
2023-05-09T06:52:36.427Z,24.0714
2023-05-09T06:53:37.360Z,24.2143
2023-05-09T06:54:38.044Z,24.2857
2023-05-09T06:55:38.567Z,24.4286
2023-05-09T06:56:38.578Z,24.5
2023-05-09T06:57:38.898Z,24.5714
2023-05-09T06:58:39.849Z,24.5714
2023-05-09T06:59:40.296Z,24.5714
2023-05-09T07:00:40.693Z,24.5
2023-05-09T07:01:41.412Z,24.5714
2023-05-09T07:02:42.534Z,24.7143
2023-05-09T07:03:43.019Z,24.8571
2023-05-09T07:04:43.817Z,24.9286
2023-05-09T07:05:44.560Z,25
2023-05-09T07:06:45.095Z,25.1429
2023-05-09T07:07:45.384Z,25.3571
2023-05-09T07:08:46.030Z,25.5
2023-05-09T07:09:46.438Z,25.6429
2023-05-09T07:10:47.048Z,25.8571
2023-05-09T07:11:47.246Z,26.0714
2023-05-09T07:12:47.538Z,26.2143
2023-05-09T07:13:47.582Z,26.4286
2023-05-09T07:14:48.011Z,26.5714
2023-05-09T07:15:48.303Z,26.7857
2023-05-09T07:16:48.484Z,27
2023-05-09T07:17:48.534Z,27.2143
2023-05-09T07:18:48.936Z,27.4286
2023-05-09T07:19:49.261Z,27.6429
2023-05-09T07:20:49.375Z,27.8571
2023-05-09T07:21:49.402Z,27.9286
2023-05-09T07:22:49.685Z,27.8571
2023-05-09T07:24:50.368Z,27.7143
2023-05-09T07:25:51.546Z,27.6429
2023-05-09T07:26:51.736Z,27.6429
2023-05-09T07:27:52.087Z,27.7143
2023-05-09T07:28:52.621Z,27.7857
2023-05-09T07:29:53.041Z,27.8571
2023-05-09T07:30:53.565Z,28.0714
2023-05-09T07:31:54.130Z,28.2857
2023-05-09T07:32:55.047Z,28.5714
2023-05-09T07:33:55.845Z,28.7143
2023-05-09T07:34:56.533Z,28.7857
2023-05-09T07:35:57.213Z,28.8571
2023-05-09T07:36:58.219Z,29
2023-05-09T07:37:58.834Z,29.2143
2023-05-09T07:38:59.588Z,29.2857
2023-05-09T07:40:00.568Z,29.4286
2023-05-09T07:41:01.503Z,29.4286
2023-05-09T07:42:01.829Z,29.3571
2023-05-09T07:43:02.707Z,29.4286
2023-05-09T07:44:03.145Z,29.2857
2023-05-09T07:45:04.101Z,29
2023-05-09T07:46:04.213Z,28.7857
2023-05-09T07:47:04.915Z,28.7143
2023-05-09T07:48:04.934Z,28.5714
2023-05-09T07:49:04.999Z,28.4286
2023-05-09T07:50:05.419Z,28.2857
2023-05-09T07:51:05.774Z,28.2143
2023-05-09T07:52:06.577Z,28
2023-05-09T07:53:07.737Z,27.7143
2023-05-09T07:54:08.133Z,27.5714
2023-05-09T07:55:09.123Z,27.5714
2023-05-09T07:56:10.071Z,27.5
2023-05-09T07:57:10.122Z,27.2857
2023-05-09T07:58:10.177Z,27
2023-05-09T07:59:11.152Z,26.5714
2023-05-09T08:00:12.011Z,26.1429
2023-05-09T08:01:12.280Z,25.7857
2023-05-09T08:02:12.389Z,25.5
2023-05-09T08:03:13.579Z,25.1429
2023-05-09T08:04:13.775Z,24.9286
2023-05-09T08:05:14.576Z,24.7143
2023-05-09T08:06:15.379Z,24.5
2023-05-09T08:07:15.364Z,24.2857
2023-05-09T08:08:15.729Z,24.1429
2023-05-09T08:09:15.846Z,24.0714
2023-05-09T08:10:16.469Z,23.9286
2023-05-09T08:11:17.476Z,23.8571
2023-05-09T08:12:17.568Z,23.7143
2023-05-09T08:13:18.258Z,23.7857
2023-05-09T08:14:18.638Z,23.8571
2023-05-09T08:15:18.721Z,24.1429
2023-05-09T08:16:18.917Z,24.5
2023-05-09T08:17:19.295Z,24.7857
2023-05-09T08:18:19.364Z,25
2023-05-09T08:19:19.653Z,25.0714
2023-05-09T08:20:19.965Z,25.1429
2023-05-09T08:21:22.076Z,25
2023-05-09T08:22:20.634Z,24.7857
2023-05-09T08:23:21.423Z,24.4286
2023-05-09T08:24:22.363Z,24.1429
2023-05-09T08:25:23.374Z,24
2023-05-09T08:26:24.301Z,23.8571
2023-05-09T08:27:25.207Z,23.7143
2023-05-09T08:28:26.183Z,23.7143
2023-05-09T08:29:26.745Z,23.6429
2023-05-09T08:30:27.427Z,23.5
2023-05-09T08:31:27.736Z,23.2857
2023-05-09T08:32:28.374Z,23.0714
2023-05-09T08:33:29.331Z,22.8571
2023-05-09T08:34:30.010Z,22.7857
2023-05-09T08:35:30.422Z,22.6429
2023-05-09T08:36:31.282Z,22.5714
2023-05-09T08:37:32.117Z,22.5
2023-05-09T08:38:33.192Z,22.5714
2023-05-09T08:39:33.522Z,22.6429
2023-05-09T08:40:34.472Z,22.7857
2023-05-09T08:41:34.763Z,23
2023-05-09T08:42:35.778Z,23.2143
2023-05-09T08:43:35.900Z,23.5
2023-05-09T08:44:36.643Z,23.5714
2023-05-09T08:45:37.180Z,23.5714
2023-05-09T08:46:38.117Z,23.5
2023-05-09T08:47:38.549Z,23.3571
2023-05-09T08:48:38.650Z,23.2143
2023-05-09T08:49:39.350Z,22.9286
2023-05-09T08:50:39.471Z,22.6429
2023-05-09T08:51:40.295Z,22.2857
2023-05-09T08:52:41.114Z,22
2023-05-09T08:53:41.512Z,21.7857
2023-05-09T08:54:42.723Z,21.5714
2023-05-09T08:55:42.985Z,21.4286
2023-05-09T08:56:43.331Z,21.2857
2023-05-09T08:57:43.906Z,21.1429
2023-05-09T08:58:43.924Z,20.9286
2023-05-09T08:59:44.928Z,20.7857
2023-05-09T09:00:45.474Z,20.5714
2023-05-09T09:01:46.482Z,20.4286
2023-05-09T09:02:46.845Z,20.2857
2023-05-09T09:03:47.503Z,20.0714
2023-05-09T09:04:48.832Z,19.9286
2023-05-09T09:05:49.715Z,19.7857
2023-05-09T09:06:49.977Z,19.6429
2023-05-09T09:07:50.924Z,19.5
2023-05-09T09:08:51.231Z,19.4286
2023-05-09T09:09:51.874Z,19.2857
2023-05-09T09:10:52.826Z,19.2143
2023-05-09T09:11:53.004Z,19.1429
2023-05-09T09:12:53.772Z,19
2023-05-09T09:13:54.260Z,18.9286
2023-05-09T09:14:54.712Z,18.9286
2023-05-09T09:15:54.755Z,18.9286
2023-05-09T09:16:55.830Z,18.8571
2023-05-09T09:17:56.636Z,18.7857
2023-05-09T09:18:58.706Z,18.7143
2023-05-09T09:19:57.070Z,18.7143
2023-05-09T09:20:57.900Z,18.6429
2023-05-09T09:21:58.011Z,18.5714
2023-05-09T09:22:58.685Z,18.5
2023-05-09T09:23:59.489Z,18.5
2023-05-09T09:24:59.779Z,18.5
2023-05-09T09:26:00.953Z,18.4286
2023-05-09T09:27:00.941Z,18.4286
2023-05-09T09:28:02.652Z,18.4286
2023-05-09T09:29:02.675Z,18.3571
2023-05-09T09:30:02.754Z,18.3571
2023-05-09T09:31:03.125Z,18.3571
2023-05-09T09:32:03.318Z,18.3571
2023-05-09T09:33:03.881Z,18.2857
2023-05-09T09:34:04.034Z,18.2857
2023-05-09T09:35:04.420Z,18.2143
2023-05-09T09:36:04.469Z,18.2143
2023-05-09T09:37:04.936Z,18.2143
2023-05-09T09:38:05.364Z,18.2143
2023-05-09T09:39:05.688Z,18.2143
2023-05-09T09:40:05.823Z,18.2143
2023-05-09T09:41:06.656Z,18.2857
2023-05-09T09:42:07.146Z,18.2143
2023-05-09T09:43:07.900Z,18.2143
2023-05-09T09:44:08.086Z,18.2143
2023-05-09T09:45:08.572Z,18.2143
2023-05-09T09:46:08.677Z,18.2857
2023-05-09T09:47:09.654Z,18.2857
2023-05-09T09:48:09.959Z,18.2857
2023-05-09T09:49:10.993Z,18.2857
2023-05-09T09:50:11.193Z,18.2857
2023-05-09T09:51:11.968Z,18.2857
2023-05-09T09:52:11.846Z,18.2857
2023-05-09T09:53:12.146Z,18.2857
2023-05-09T09:54:12.257Z,18.2857
2023-05-09T09:55:12.900Z,18.2857
2023-05-09T09:56:13.569Z,18.2857
2023-05-09T09:57:13.773Z,18.3571
2023-05-09T09:58:13.867Z,18.3571
2023-05-09T09:59:14.060Z,18.3571
2023-05-09T10:00:14.379Z,18.3571
2023-05-09T10:01:14.880Z,18.3571
2023-05-09T10:02:15.206Z,18.3571
2023-05-09T10:03:15.527Z,18.3571
2023-05-09T10:04:16.532Z,18.4286
2023-05-09T10:05:17.195Z,18.4286
2023-05-09T10:06:17.624Z,18.4286
2023-05-09T10:07:17.961Z,18.4286
2023-05-09T10:08:18.741Z,18.4286
2023-05-09T10:09:19.736Z,18.5
2023-05-09T10:10:20.102Z,18.5
2023-05-09T10:11:21.023Z,18.5
2023-05-09T10:12:21.568Z,18.5
2023-05-09T10:13:22.051Z,18.5
2023-05-09T10:14:22.924Z,18.5
2023-05-09T10:15:22.983Z,18.5714
2023-05-09T10:16:31.956Z,18.5714
2023-05-09T10:17:24.089Z,18.6429
2023-05-09T10:18:24.904Z,18.6429
2023-05-09T10:19:25.588Z,18.7143
2023-05-09T10:20:26.170Z,18.7143
2023-05-09T10:21:27.002Z,18.7857
2023-05-09T10:22:27.669Z,18.7857
2023-05-09T10:23:27.892Z,18.7857
2023-05-09T10:24:29.429Z,18.8571
2023-05-09T10:25:29.743Z,18.8571
2023-05-09T10:26:30.692Z,18.8571
2023-05-09T10:27:31.307Z,18.8571
2023-05-09T10:28:31.255Z,18.8571
2023-05-09T10:29:31.366Z,18.8571
2023-05-09T10:30:33.952Z,18.8571
2023-05-09T10:31:31.942Z,18.8571
2023-05-09T10:32:31.988Z,18.8571
2023-05-09T10:33:32.639Z,18.9286
2023-05-09T10:34:33.062Z,18.8571
2023-05-09T10:35:33.528Z,18.9286
2023-05-09T10:36:34.073Z,18.9286
2023-05-09T10:37:34.282Z,18.9286
2023-05-09T10:38:35.422Z,18.9286
2023-05-09T10:39:35.474Z,19
2023-05-09T10:40:36.122Z,19
2023-05-09T10:41:36.622Z,18.9286
2023-05-09T10:42:37.559Z,18.9286
2023-05-09T10:43:38.259Z,19
2023-05-09T10:44:38.922Z,19
2023-05-09T10:45:39.548Z,19.0714
2023-05-09T10:46:39.672Z,19.0714
2023-05-09T10:47:39.861Z,19.1429
2023-05-09T10:48:40.343Z,19.1429
2023-05-09T10:49:40.638Z,19.1429
2023-05-09T10:50:41.701Z,19.1429
2023-05-09T10:51:42.134Z,19.1429
2023-05-09T10:52:42.822Z,19.2143
2023-05-09T10:53:42.907Z,19.2143
2023-05-09T10:54:43.177Z,19.2143
2023-05-09T10:55:43.923Z,19.2143
2023-05-09T10:56:44.134Z,19.2857
2023-05-09T10:57:44.414Z,19.2857
2023-05-09T10:58:44.945Z,19.2857
2023-05-09T10:59:45.535Z,19.2857
2023-05-09T11:00:46.115Z,19.3571
2023-05-09T11:01:46.628Z,19.3571
2023-05-09T11:02:46.624Z,19.3571
2023-05-09T11:03:47.522Z,19.3571
2023-05-09T11:04:48.012Z,19.3571
2023-05-09T11:05:48.829Z,19.3571
2023-05-09T11:06:49.809Z,19.3571
2023-05-09T11:07:50.091Z,19.4286
2023-05-09T11:08:50.784Z,19.4286
2023-05-09T11:09:51.418Z,19.4286
2023-05-09T11:10:52.072Z,19.4286
2023-05-09T11:11:52.830Z,19.4286
2023-05-09T11:12:54.378Z,19.4286
2023-05-09T11:13:53.284Z,19.4286
2023-05-09T11:14:54.067Z,19.5
2023-05-09T11:15:54.759Z,19.5
2023-05-09T11:16:54.982Z,19.5
2023-05-09T11:17:55.955Z,19.5714
2023-05-09T11:18:56.010Z,19.5714
2023-05-09T11:19:56.110Z,19.6429
2023-05-09T11:20:56.321Z,19.6429
2023-05-09T11:21:56.695Z,19.7143
2023-05-09T11:22:56.759Z,19.7143
2023-05-09T11:23:57.952Z,19.7143
2023-05-09T11:24:58.573Z,19.7143
2023-05-09T11:25:59.248Z,19.7143
2023-05-09T11:26:59.613Z,19.7143
2023-05-09T11:28:00.340Z,19.7143
2023-05-09T11:29:00.868Z,19.7143
2023-05-09T11:30:01.545Z,19.7143
2023-05-09T11:31:02.118Z,19.7143
2023-05-09T11:32:02.723Z,19.7143
2023-05-09T11:33:03.174Z,19.7143
2023-05-09T11:34:04.064Z,19.7857
2023-05-09T11:35:04.899Z,19.7857
2023-05-09T11:36:05.110Z,19.7857
2023-05-09T11:37:06.088Z,19.7857
2023-05-09T11:38:06.817Z,19.8571
2023-05-09T11:39:06.896Z,19.8571
2023-05-09T11:40:07.099Z,19.8571
2023-05-09T11:41:08.041Z,19.8571
2023-05-09T11:42:08.450Z,19.8571
2023-05-09T11:43:08.520Z,19.9286
2023-05-09T11:44:09.616Z,20
2023-05-09T11:45:09.821Z,20
2023-05-09T11:46:10.310Z,20
2023-05-09T11:47:10.397Z,19.9286
2023-05-09T11:48:11.314Z,19.9286
2023-05-09T11:49:12.270Z,19.9286
2023-05-09T11:50:12.855Z,19.9286
2023-05-09T11:51:13.569Z,19.9286
2023-05-09T11:52:13.583Z,19.9286
2023-05-09T11:53:13.493Z,19.9286
2023-05-09T11:54:14.628Z,19.9286
2023-05-09T11:55:14.963Z,19.9286
2023-05-09T11:56:15.024Z,20
2023-05-09T11:57:15.493Z,20
2023-05-09T11:58:16.933Z,19.9286
2023-05-09T11:59:17.124Z,20
2023-05-09T12:00:17.467Z,20
2023-05-09T12:01:17.862Z,20
2023-05-09T12:02:18.180Z,20.0714
2023-05-09T12:03:19.366Z,20.0714
2023-05-09T12:04:20.083Z,20.1429
2023-05-09T12:05:20.652Z,20.1429
2023-05-09T12:06:21.597Z,20.1429
2023-05-09T12:07:22.534Z,20.2143
2023-05-09T12:08:23.240Z,20.2143
2023-05-09T12:09:24.365Z,20.2857
2023-05-09T12:10:25.492Z,20.2857
2023-05-09T12:11:26.423Z,20.3571
2023-05-09T12:12:27.088Z,20.3571
2023-05-09T12:13:27.780Z,20.3571
2023-05-09T12:14:28.170Z,20.3571
2023-05-09T12:15:28.939Z,20.3571
2023-05-09T12:16:29.758Z,20.3571
2023-05-09T12:17:30.532Z,20.3571
2023-05-09T12:18:31.351Z,20.3571
2023-05-09T12:19:32.015Z,20.3571
2023-05-09T12:20:32.830Z,20.4286
2023-05-09T12:21:33.652Z,20.4286
2023-05-09T12:22:34.239Z,20.4286
2023-05-09T12:23:34.497Z,20.4286
2023-05-09T12:24:35.486Z,20.4286
2023-05-09T12:25:36.353Z,20.5
2023-05-09T12:26:36.899Z,20.5
2023-05-09T12:27:37.380Z,20.5
2023-05-09T12:28:37.793Z,20.5